Time;durP1;ratioP1;P1;durP2;ratioP2;P2;SDS_P1;SDS_P2;PMS_P1;PMS_P2;Temp;Humidity;BMP_temperature;BMP_pressure;BME280_temperature;BME280_humidity;BME280_pressure;Samples;Min_cycle;Max_cycle;Signal;HPM_P1;HPM_P2
2022/12/05 00:01:41;;;;;;;21.75;12.18;;;2.30;99.90;;;1.23;100.00;97419.69;5043721;28;20056;-75
2022/12/05 00:04:12;;;;;;;24.90;12.45;;;2.30;99.90;;;1.39;100.00;97428.09;5045718;28;20063;-75
2022/12/05 00:06:41;;;;;;;19.05;10.77;;;2.30;99.90;;;1.32;100.00;97423.84;5046369;28;20118;-76
2022/12/05 00:09:10;;;;;;;20.35;10.45;;;2.30;99.90;;;1.34;100.00;97432.38;5061517;28;20056;-74
2022/12/05 00:11:40;;;;;;;21.85;11.90;;;2.30;99.90;;;1.17;100.00;97419.72;5043187;28;20049;-75
2022/12/05 00:14:10;;;;;;;25.02;13.60;;;2.30;99.90;;;1.18;100.00;97418.00;5044017;28;20041;-74
2022/12/05 00:16:40;;;;;;;22.67;11.52;;;2.20;99.90;;;1.14;100.00;97422.31;5044873;28;20045;-74
2022/12/05 00:19:11;;;;;;;23.30;11.68;;;2.20;99.90;;;1.09;100.00;97429.16;5042378;28;20044;-74
2022/12/05 00:21:38;;;;;;;27.42;12.77;;;2.20;99.90;;;1.12;100.00;97424.03;5044047;28;20049;-74
2022/12/05 00:24:08;;;;;;;25.58;12.95;;;2.10;99.90;;;1.16;100.00;97424.84;5044221;28;20068;-74
2022/12/05 00:26:35;;;;;;;25.00;12.30;;;2.10;99.90;;;1.17;100.00;97426.56;5040219;28;20057;-74
2022/12/05 00:29:02;;;;;;;20.83;9.93;;;2.10;99.90;;;1.13;100.00;97423.16;5044003;28;20056;-74
2022/12/05 00:31:30;;;;;;;21.20;11.23;;;2.10;99.90;;;1.16;100.00;97425.69;5045057;28;20052;-75
2022/12/05 00:34:00;;;;;;;20.90;10.05;;;2.10;99.90;;;1.31;100.00;97426.44;5045763;28;20041;-74
2022/12/05 00:36:31;;;;;;;27.58;13.32;;;2.20;99.90;;;1.18;100.00;97425.69;5043660;28;20045;-74
2022/12/05 00:39:00;;;;;;;30.20;14.32;;;2.20;99.90;;;1.22;100.00;97419.69;5043121;28;20052;-74
2022/12/05 00:41:29;;;;;;;37.50;19.23;;;2.20;99.90;;;1.33;100.00;97424.72;5059200;28;20667;-74
2022/12/05 00:43:59;;;;;;;33.17;16.90;;;2.20;99.90;;;1.07;100.00;97433.41;5041500;28;20052;-74
2022/12/05 00:46:29;;;;;;;30.52;14.77;;;2.20;99.90;;;1.00;100.00;97434.31;5042652;28;20052;-74
2022/12/05 00:48:58;;;;;;;21.92;12.55;;;2.20;99.90;;;1.16;100.00;97432.50;5058780;28;20140;-74
2022/12/05 00:51:35;;;;;;;43.83;19.15;;;2.30;99.90;;;1.13;100.00;97435.09;5044053;28;20132;-73
2022/12/05 00:54:06;;;;;;;28.10;14.57;;;2.20;99.90;;;1.36;100.00;97434.91;5043791;28;20049;-74
2022/12/05 00:56:33;;;;;;;23.42;12.30;;;2.20;99.90;;;1.37;100.00;97434.03;5041720;28;20041;-73
2022/12/05 00:59:02;;;;;;;34.70;15.40;;;2.30;99.90;;;1.22;100.00;97440.97;5043273;28;20041;-74
2022/12/05 01:01:32;;;;;;;38.08;15.60;;;2.30;99.90;;;1.30;100.00;97435.84;5042877;28;20044;-74
2022/12/05 01:04:03;;;;;;;32.10;15.43;;;2.30;99.90;;;1.29;100.00;97429.00;5041955;28;20084;-73
2022/12/05 01:06:30;;;;;;;24.88;12.50;;;2.20;99.90;;;1.41;100.00;97435.72;5055500;28;20414;-73
2022/12/05 01:08:58;;;;;;;22.85;11.23;;;2.20;99.90;;;1.50;100.00;97438.19;5044461;28;20052;-73
2022/12/05 01:11:26;;;;;;;21.60;11.05;;;2.30;99.90;;;1.48;100.00;97437.34;5044285;28;20051;-73
2022/12/05 01:13:53;;;;;;;16.52;9.93;;;2.30;99.90;;;1.45;100.00;97440.78;5044042;28;20859;-74
2022/12/05 01:16:40;;;;;;;16.60;9.18;;;2.30;99.90;;;1.41;100.00;97438.28;5043461;28;20655;-73
2022/12/05 01:19:18;;;;;;;17.35;10.30;;;2.30;99.90;;;1.36;100.00;97440.88;5044435;28;20047;-73
2022/12/05 01:21:46;;;;;;;18.50;10.63;;;2.30;99.90;;;1.49;100.00;97451.88;5041409;28;20532;-73
2022/12/05 01:24:15;;;;;;;18.70;9.73;;;2.40;99.90;;;1.45;100.00;97456.13;5043085;28;20462;-73
2022/12/05 01:26:42;;;;;;;17.55;8.98;;;2.40;99.90;;;1.38;100.00;97457.06;5039054;28;20051;-74
2022/12/05 01:29:12;;;;;;;20.75;9.77;;;2.40;99.90;;;1.45;100.00;97460.41;5041742;28;20045;-73
2022/12/05 01:31:40;;;;;;;21.80;10.00;;;2.40;99.90;;;1.38;100.00;97463.88;5046008;28;20576;-73
2022/12/05 01:34:11;;;;;;;19.83;11.70;;;2.40;99.90;;;1.34;100.00;97467.31;5044834;28;20045;-73
2022/12/05 01:36:39;;;;;;;25.42;13.52;;;2.50;99.90;;;1.19;100.00;97465.75;5062495;28;20047;-72
2022/12/05 01:39:08;;;;;;;21.65;11.60;;;2.40;99.90;;;1.29;100.00;97466.53;5043009;28;20391;-73
2022/12/05 01:41:42;;;;;;;24.52;12.32;;;2.30;99.90;;;1.18;100.00;97457.19;5046573;28;20502;-72
2022/12/05 01:44:12;;;;;;;27.27;13.07;;;2.40;99.90;;;1.28;100.00;97457.13;5045596;28;20053;-73
2022/12/05 01:46:49;;;;;;;23.48;11.95;;;2.40;99.90;;;1.33;100.00;97451.13;5049540;28;20053;-73
2022/12/05 01:49:22;;;;;;;30.77;17.05;;;2.40;99.90;;;1.36;100.00;97446.00;5062495;28;20052;-72
2022/12/05 01:51:54;;;;;;;26.15;13.70;;;2.40;99.90;;;1.35;100.00;97451.97;5046111;28;20071;-72
2022/12/05 01:54:22;;;;;;;25.17;13.85;;;2.40;99.90;;;1.46;100.00;97462.13;5047141;28;20045;-73
2022/12/05 01:57:00;;;;;;;23.77;13.13;;;2.40;99.90;;;1.32;100.00;97469.03;5048821;28;20049;-72
2022/12/05 01:59:31;;;;;;;26.98;12.88;;;2.40;99.90;;;1.49;100.00;97467.22;5045646;28;20059;-73
2022/12/05 02:01:58;;;;;;;28.80;12.65;;;2.40;99.90;;;1.43;100.00;97473.22;5048224;28;20049;-72
2022/12/05 02:04:26;;;;;;;27.80;13.07;;;2.50;99.90;;;1.55;100.00;97468.84;5048009;28;20060;-72
2022/12/05 02:06:54;;;;;;;18.27;10.63;;;2.50;99.90;;;1.46;100.00;97465.53;5044272;28;20064;-72
2022/12/05 02:09:22;;;;;;;17.55;9.80;;;2.50;99.90;;;1.51;100.00;97455.25;5045541;28;20059;-73
2022/12/05 02:12:01;;;;;;;20.38;10.77;;;2.50;99.90;;;1.37;100.00;97452.81;5040897;28;20426;-73
2022/12/05 02:15:03;;;;;;;19.83;11.82;;;2.40;99.90;;;1.25;100.00;97455.44;5045582;28;20061;-72
2022/12/05 02:17:48;;;;;;;24.00;12.25;;;2.30;99.90;;;1.19;100.00;97448.69;5061303;28;20052;-72
2022/12/05 02:20:46;;;;;;;33.47;11.30;;;2.20;99.90;;;1.03;100.00;97444.56;5047679;28;20049;-73
2022/12/05 02:24:06;;;;;;;34.92;13.95;;;2.20;99.90;;;1.03;100.00;97455.63;5046913;28;20037;-72
2022/12/05 02:26:59;;;;;;;27.25;13.45;;;2.00;99.90;;;1.05;100.00;97465.84;5046226;28;20045;-72
2022/12/05 02:30:00;;;;;;;24.95;12.10;;;2.00;99.90;;;1.08;100.00;97460.69;5038779;28;20060;-72
2022/12/05 02:32:55;;;;;;;22.13;11.93;;;2.10;99.90;;;1.18;100.00;97458.91;5046651;28;20053;-72
2022/12/05 02:35:45;;;;;;;24.70;12.90;;;2.10;99.90;;;1.12;100.00;97464.06;5047429;28;20060;-72
2022/12/05 02:38:40;;;;;;;24.17;12.48;;;2.00;99.90;;;1.09;100.00;97449.59;5045291;28;20494;-72
2022/12/05 02:41:21;;;;;;;31.75;14.40;;;2.00;99.90;;;1.10;100.00;97451.31;5060977;28;20732;-72
2022/12/05 02:44:04;;;;;;;32.72;13.60;;;2.00;99.90;;;1.11;100.00;97465.78;5047232;28;20809;-72
2022/12/05 02:46:36;;;;;;;23.38;10.80;;;2.10;99.90;;;1.03;100.00;97465.00;5045204;28;20502;-72
2022/12/05 02:49:09;;;;;;;21.00;10.48;;;2.10;99.90;;;1.23;100.00;97454.63;5045856;28;20431;-72
2022/12/05 02:51:47;;;;;;;;;;;2.20;99.90;;;1.32;100.00;97466.47;5043919;28;20418;-72
2022/12/05 02:54:25;;;;;;;25.77;12.45;;;2.30;99.90;;;1.27;100.00;97474.19;5046554;28;19924;-71
2022/12/05 02:56:53;;;;;;;33.58;14.02;;;2.30;99.90;;;1.25;100.00;97478.47;5045205;28;20052;-72
2022/12/05 02:59:20;;;;;;;23.73;11.63;;;2.30;99.90;;;1.23;100.00;97486.16;5048623;28;20052;-72
2022/12/05 03:01:50;;;;;;;22.20;11.02;;;2.40;99.90;;;1.29;100.00;97486.97;5047205;28;20084;-72
2022/12/05 03:04:21;;;;;;;25.17;11.98;;;2.40;99.90;;;1.30;100.00;97493.78;5043956;28;20045;-72
2022/12/05 03:07:06;;;;;;;19.00;11.10;;;2.40;99.90;;;1.25;100.00;97499.78;5047554;28;20069;-72
2022/12/05 03:09:35;;;;;;;;;;;2.40;99.90;;;1.22;100.00;97504.06;5044041;28;20044;-72
2022/12/05 03:12:10;;;;;;;24.17;12.27;;;2.40;99.90;;;1.17;100.00;97493.03;5047332;28;19932;-72
2022/12/05 03:14:51;;;;;;;20.42;12.23;;;2.30;99.90;;;1.15;100.00;97492.19;5044236;28;20045;-72
2022/12/05 03:17:24;;;;;;;29.88;13.88;;;2.30;99.90;;;1.16;100.00;97499.81;5046250;28;20659;-72
2022/12/05 03:20:17;;;;;;;25.35;12.27;;;2.20;99.90;;;1.14;100.00;97499.00;5043426;28;20052;-72
2022/12/05 03:23:19;;;;;;;24.07;12.17;;;2.20;99.90;;;1.14;100.00;97501.56;5043249;28;20106;-72
2022/12/05 03:26:11;;;;;;;22.25;11.20;;;2.20;99.90;;;1.12;100.00;97495.63;5044689;28;20090;-72
2022/12/05 03:29:02;;;;;;;23.48;11.50;;;2.20;99.90;;;1.16;100.00;97497.25;5047302;28;20048;-72
2022/12/05 03:31:49;;;;;;;21.50;9.20;;;2.20;99.90;;;1.05;100.00;97511.84;5046723;28;20683;-73
2022/12/05 03:34:30;;;;;;;25.17;10.10;;;2.20;99.90;;;1.06;100.00;97515.25;5045496;28;20048;-71
2022/12/05 03:37:05;;;;;;;30.08;11.02;;;2.20;99.90;;;1.09;100.00;97512.66;5044789;28;20521;-71
2022/12/05 03:39:37;;;;;;;36.63;11.77;;;2.20;99.90;;;1.03;100.00;97516.97;5029850;28;20632;-72
2022/12/05 03:42:13;;;;;;;47.45;12.50;;;2.10;99.90;;;0.98;100.00;97521.25;5045502;28;20129;-72
2022/12/05 03:45:17;;;;;;;32.40;11.18;;;2.10;99.90;;;1.10;100.00;97522.88;5058911;28;20045;-73
2022/12/05 03:48:14;;;;;;;22.02;9.05;;;2.10;99.90;;;1.11;100.00;97528.84;5038930;28;20079;-72
2022/12/05 03:50:46;;;;;;;39.53;10.70;;;2.10;99.90;;;1.11;100.00;97527.13;5044507;28;20049;-72
2022/12/05 03:53:34;;;;;;;27.38;10.57;;;2.10;99.90;;;1.12;100.00;97538.19;5045978;28;20049;-72
2022/12/05 03:56:11;;;;;;;28.73;9.77;;;2.20;99.90;;;1.06;100.00;97533.16;5060870;28;20076;-72
2022/12/05 03:58:56;;;;;;;29.83;9.63;;;2.20;99.90;;;1.18;100.00;97531.34;5045558;28;20049;-72
2022/12/05 04:01:27;;;;;;;91.88;14.20;;;2.20;99.90;;;1.10;100.00;97534.81;5042677;28;20439;-72
2022/12/05 04:04:10;;;;;;;135.80;15.30;;;2.20;99.90;;;0.97;100.00;97536.59;5038843;28;20049;-72
2022/12/05 04:06:40;;;;;;;18.67;8.57;;;2.30;99.90;;;1.15;100.00;97536.50;5062118;28;20049;-72
2022/12/05 04:09:36;;;;;;;45.10;11.65;;;2.20;99.90;;;1.29;100.00;97533.84;5045773;28;20048;-72
2022/12/05 04:12:12;;;;;;;16.42;7.55;;;2.30;99.90;;;1.30;100.00;97539.78;5059292;28;20164;-72
2022/12/05 04:14:44;;;;;;;121.15;14.65;;;2.30;99.90;;;1.12;100.00;97539.06;5045267;28;20045;-73
2022/12/05 04:17:36;;;;;;;42.17;10.48;;;2.30;99.90;;;1.25;100.00;97530.47;5044147;28;20059;-72
2022/12/05 04:23:08;;;;;;;22.27;8.98;;;2.40;99.90;;;1.35;100.00;97543.19;5043203;28;20044;-72
2022/12/05 04:26:12;;;;;;;17.40;7.90;;;2.50;99.90;;;1.35;100.00;97545.75;5038954;28;20060;-73
2022/12/05 04:28:51;;;;;;;23.42;9.18;;;2.50;99.90;;;1.32;100.00;97546.59;5044282;28;20059;-73
2022/12/05 04:31:32;;;;;;;18.02;8.23;;;2.50;99.90;;;1.41;100.00;97543.13;5027119;28;20586;-73
2022/12/05 04:34:04;;;;;;;54.25;12.05;;;2.50;99.90;;;1.31;100.00;97537.25;5044898;28;20052;-72
2022/12/05 04:36:42;;;;;;;45.42;11.23;;;2.50;99.90;;;1.37;100.00;97533.78;5059295;28;20159;-73
2022/12/05 04:39:30;;;;;;;15.88;8.45;;;2.50;99.90;;;1.50;100.00;97530.28;5045650;28;20047;-73
2022/12/05 04:42:12;;;;;;;28.08;9.70;;;2.50;99.90;;;1.44;100.00;97538.03;5043791;28;20466;-72
2022/12/05 04:44:52;;;;;;;19.23;8.45;;;2.50;99.90;;;1.39;100.00;97539.75;5042737;28;20076;-72
2022/12/05 04:47:23;;;;;;;34.55;10.65;;;2.50;99.90;;;1.34;100.00;97536.38;5058155;28;20410;-72
2022/12/05 04:49:52;;;;;;;23.80;9.30;;;2.60;99.90;;;1.38;100.00;97532.94;5041354;28;20419;-73
2022/12/05 04:52:21;;;;;;;20.23;9.10;;;2.60;99.90;;;1.50;100.00;97534.56;5044779;28;20041;-73
2022/12/05 04:54:56;;;;;;;25.95;9.73;;;2.60;99.90;;;1.56;100.00;97539.63;5060123;28;20518;-72
2022/12/05 04:57:59;;;;;;;30.17;9.80;;;2.60;99.90;;;1.59;100.00;97543.00;5042337;28;20037;-72
2022/12/05 05:00:30;;;;;;;40.50;11.43;;;2.60;99.90;;;1.68;100.00;97542.09;5045824;28;20041;-72
2022/12/05 05:03:17;;;;;;;66.45;13.63;;;2.60;99.90;;;1.61;100.00;97546.41;5043730;28;20063;-73
2022/12/05 05:05:51;;;;;;;60.58;14.15;;;2.60;99.90;;;1.49;100.00;97543.94;5043646;28;20049;-73
2022/12/05 05:08:22;;;;;;;26.98;11.40;;;2.50;99.90;;;1.41;100.00;97543.97;5044633;28;20045;-73
2022/12/05 05:11:11;;;;;;;31.80;11.38;;;2.50;99.90;;;1.38;100.00;97538.06;5041527;28;20494;-72
2022/12/05 05:13:38;;;;;;;29.40;11.25;;;2.40;99.90;;;1.35;100.00;97541.47;5041968;28;20055;-72
2022/12/05 05:16:06;;;;;;;17.42;8.48;;;2.40;99.90;;;1.38;100.00;97544.00;5060213;28;20041;-72
2022/12/05 05:18:33;;;;;;;14.65;7.65;;;2.40;99.90;;;1.43;100.00;97539.69;5039394;28;20052;-72
2022/12/05 05:21:00;;;;;;;16.27;8.68;;;2.40;99.90;;;1.24;100.00;97544.09;5042294;28;20049;-72
2022/12/05 05:23:27;;;;;;;19.58;9.15;;;2.50;99.90;;;1.22;100.00;97550.09;5040602;28;20067;-73
2022/12/05 05:25:55;;;;;;;17.58;8.73;;;2.50;99.90;;;1.20;100.00;97541.56;5046045;28;20064;-72
2022/12/05 05:28:22;;;;;;;14.70;7.72;;;2.50;99.90;;;1.34;100.00;97547.44;5043729;28;20414;-72
2022/12/05 05:30:49;;;;;;;16.67;7.32;;;2.50;99.90;;;1.47;100.00;97558.44;5040604;28;20506;-72
2022/12/05 05:33:16;;;;;;;16.27;7.15;;;2.50;99.90;;;1.54;100.00;97567.78;5043873;28;20041;-72
2022/12/05 05:35:43;;;;;;;35.13;9.18;;;2.60;99.90;;;1.44;100.00;97559.31;5042122;28;20044;-72
2022/12/05 05:38:10;;;;;;;37.22;10.85;;;2.60;99.90;;;1.36;100.00;97555.13;5043204;28;20476;-72
2022/12/05 05:40:37;;;;;;;17.20;8.88;;;2.50;99.90;;;1.46;100.00;97560.16;5041658;28;20083;-73
2022/12/05 05:43:04;;;;;;;18.90;8.25;;;2.50;99.90;;;1.58;100.00;97563.50;5043422;28;20475;-72
2022/12/05 05:45:31;;;;;;;35.53;9.35;;;2.50;99.90;;;1.40;100.00;97577.25;5044134;28;20060;-72
2022/12/05 05:47:57;;;;;;;20.75;8.32;;;2.60;99.90;;;1.45;100.00;97572.97;5046116;28;20052;-72
2022/12/05 05:50:24;;;;;;;22.27;7.75;;;2.60;99.90;;;1.54;100.00;97569.50;5041781;28;20058;-71
2022/12/05 05:52:51;;;;;;;21.17;7.63;;;2.50;99.90;;;1.54;100.00;97570.34;5043702;28;20044;-72
2022/12/05 05:55:18;;;;;;;33.72;11.07;;;2.50;99.90;;;1.44;100.00;97564.44;5058785;28;20067;-72
2022/12/05 05:57:45;;;;;;;31.67;10.63;;;2.60;99.90;;;1.55;100.00;97566.06;5038644;28;20132;-72
2022/12/05 06:00:14;;;;;;;17.50;8.85;;;2.60;99.90;;;1.56;100.00;97571.19;5042743;28;20041;-72
2022/12/05 06:02:41;;;;;;;44.05;13.00;;;2.60;99.90;;;1.27;100.00;97581.59;5041145;28;20059;-72
2022/12/05 06:05:08;;;;;;;25.42;9.93;;;2.60;99.90;;;1.49;100.00;97582.31;5044491;28;20126;-72
2022/12/05 06:07:35;;;;;;;27.42;11.02;;;2.70;99.90;;;1.61;100.00;97591.63;5047372;28;20045;-72
2022/12/05 06:10:04;;;;;;;40.72;14.75;;;2.60;99.90;;;1.54;100.00;97584.84;5046095;28;20110;-73
2022/12/05 06:12:31;;;;;;;36.75;13.05;;;2.60;99.90;;;1.43;100.00;97588.31;5045479;28;20507;-73
2022/12/05 06:14:58;;;;;;;37.60;13.40;;;2.60;99.90;;;1.60;100.00;97585.66;5042731;28;20582;-73
2022/12/05 06:17:24;;;;;;;26.25;10.88;;;2.60;99.90;;;1.48;100.00;97593.38;5043118;28;20042;-73
2022/12/05 06:19:51;;;;;;;22.52;10.50;;;2.60;99.90;;;1.60;100.00;97595.03;5043424;28;20045;-73
2022/12/05 06:22:18;;;;;;;22.63;10.18;;;2.60;99.90;;;1.56;100.00;97601.88;5041381;28;20073;-73
2022/12/05 06:24:45;;;;;;;33.50;13.40;;;2.60;99.90;;;1.60;100.00;97605.28;5045959;28;20048;-73
2022/12/05 06:27:12;;;;;;;27.17;12.50;;;2.60;99.90;;;1.47;100.00;97599.38;5044439;28;20048;-73
2022/12/05 06:29:39;;;;;;;29.73;13.35;;;2.60;99.90;;;1.51;100.00;97598.50;5043710;28;20056;-72
2022/12/05 06:32:07;;;;;;;22.17;10.88;;;2.60;99.90;;;1.58;100.00;97605.28;5047418;28;20052;-72
2022/12/05 06:34:35;;;;;;;21.20;10.45;;;2.60;99.90;;;1.66;100.00;97612.88;5047823;28;20483;-72
2022/12/05 06:37:02;;;;;;;26.88;12.50;;;2.60;99.90;;;1.64;100.00;97612.03;5048913;28;20049;-73
2022/12/05 06:39:29;;;;;;;28.40;12.77;;;2.60;99.90;;;1.58;100.00;97619.78;5044884;28;20064;-73
2022/12/05 06:41:56;;;;;;;22.77;10.88;;;2.60;99.90;;;1.62;100.00;97616.31;5049325;28;20523;-73
2022/12/05 06:44:25;;;;;;;26.60;10.85;;;2.60;99.90;;;1.66;100.00;97615.44;5045880;28;20160;-72
2022/12/05 06:46:53;;;;;;;23.65;11.32;;;2.60;99.90;;;1.72;100.00;97617.13;5048164;28;21554;-72
2022/12/05 06:49:24;;;;;;;32.65;14.95;;;2.60;99.90;;;1.59;100.00;97618.91;5045807;28;20363;-73
2022/12/05 06:51:59;;;;;;;32.60;12.57;;;2.60;99.90;;;1.63;100.00;97620.59;5048124;28;20049;-72
2022/12/05 06:54:26;;;;;;;37.53;15.25;;;2.60;99.90;;;1.66;100.00;97618.84;5045386;28;20410;-72
2022/12/05 06:56:52;;;;;;;28.15;12.90;;;2.60;99.90;;;1.72;100.00;97628.22;5046146;28;20212;-73
2022/12/05 06:59:19;;;;;;;27.08;12.65;;;2.60;99.90;;;1.61;100.00;97641.06;5045952;28;20050;-72
2022/12/05 07:01:46;;;;;;;33.47;14.60;;;2.60;99.90;;;1.76;100.00;97637.56;5047305;28;20049;-72
2022/12/05 07:04:24;;;;;;;38.42;14.73;;;2.60;99.90;;;1.71;100.00;97638.44;5042163;28;20056;-73
2022/12/05 07:06:53;;;;;;;30.08;13.27;;;2.70;99.90;;;1.67;100.00;97632.50;5062581;28;20075;-72
2022/12/05 07:09:44;;;;;;;45.25;16.45;;;2.70;99.90;;;1.70;100.00;97629.09;5048710;28;20052;-72
2022/12/05 07:12:15;;;;;;;46.90;15.95;;;2.70;99.90;;;1.68;100.00;97639.31;5026260;28;20483;-73
2022/12/05 07:14:43;;;;;;;31.80;14.05;;;2.70;99.90;;;1.63;100.00;97641.91;5047303;28;20479;-73
2022/12/05 07:17:19;;;;;;;32.67;13.68;;;2.70;99.90;;;1.69;100.00;97643.59;5047006;28;20048;-73
2022/12/05 07:19:48;;;;;;;56.47;15.88;;;2.70;99.90;;;1.74;100.00;97641.84;5044322;28;20053;-73
2022/12/05 07:22:17;;;;;;;45.85;16.35;;;2.70;99.90;;;1.74;100.00;97641.84;5047181;28;20059;-73
2022/12/05 07:24:45;;;;;;;46.92;15.98;;;2.80;99.90;;;1.83;100.00;97646.06;5046636;28;20052;-73
2022/12/05 07:27:14;;;;;;;57.15;18.02;;;2.80;99.90;;;1.86;100.00;97646.03;5041952;28;20119;-72
2022/12/05 07:29:41;;;;;;;45.10;16.42;;;2.80;99.90;;;1.86;100.00;97659.66;5047976;28;20776;-73
2022/12/05 07:32:08;;;;;;;48.95;17.88;;;2.80;99.90;;;1.87;100.00;97655.41;5044377;28;20045;-72
2022/12/05 07:34:35;;;;;;;42.95;16.23;;;2.90;99.90;;;1.87;100.00;97656.28;5042032;28;20073;-73
2022/12/05 07:37:02;;;;;;;30.33;14.02;;;2.90;99.90;;;1.90;100.00;97657.13;5046194;28;20044;-72
2022/12/05 07:39:29;;;;;;;40.92;15.90;;;2.90;99.90;;;1.92;100.00;97656.25;5045468;28;20482;-73
2022/12/05 07:41:56;;;;;;;58.95;18.42;;;2.90;99.90;;;1.86;100.00;97656.28;5042955;28;20060;-72
2022/12/05 07:44:23;;;;;;;52.53;18.48;;;2.90;99.90;;;1.88;100.00;97659.66;5045842;28;20119;-73
2022/12/05 07:46:49;;;;;;;59.72;18.65;;;2.90;99.90;;;1.77;100.00;97657.16;5043866;28;20049;-73
2022/12/05 07:49:16;;;;;;;65.88;20.40;;;3.00;99.90;;;1.91;100.00;97653.69;5058061;28;20075;-72
2022/12/05 07:51:43;;;;;;;56.55;18.50;;;3.00;99.90;;;1.99;100.00;97662.16;5045820;28;20064;-72
2022/12/05 07:54:10;;;;;;;60.80;18.85;;;3.00;99.90;;;2.03;100.00;97663.81;5044065;28;20470;-72
2022/12/05 07:56:37;;;;;;;79.50;21.48;;;3.00;99.90;;;2.06;100.00;97664.66;5046341;28;20040;-72
2022/12/05 07:59:10;;;;;;;73.75;21.33;;;3.00;99.90;;;1.93;100.00;97664.75;5042380;28;20152;-73
2022/12/05 08:01:37;;;;;;;79.60;20.17;;;3.00;99.90;;;2.00;100.00;97669.81;5046280;28;20040;-72
2022/12/05 08:04:04;;;;;;;92.40;23.00;;;3.00;99.90;;;1.98;100.00;97671.53;5043356;28;20666;-72
2022/12/05 08:06:33;;;;;;;145.77;26.67;;;3.00;99.90;;;1.96;100.00;97662.16;5042216;28;20127;-72
2022/12/05 08:09:00;;;;;;;142.88;26.40;;;3.00;99.90;;;2.05;100.00;97668.09;5043984;28;20053;-72
2022/12/05 08:11:31;;;;;;;80.05;21.30;;;3.10;99.90;;;2.06;100.00;97674.06;5044482;28;20139;-72
2022/12/05 08:13:58;;;;;;;81.70;21.48;;;3.10;99.90;;;2.08;100.00;97675.75;5044980;28;20054;-73
2022/12/05 08:16:28;;;;;;;83.03;22.08;;;3.10;99.90;;;2.03;100.00;97682.63;5042578;28;20052;-73
2022/12/05 08:19:01;;;;;;;74.60;20.10;;;3.10;99.90;;;2.07;100.00;97671.47;5040624;28;20060;-72
2022/12/05 08:21:28;;;;;;;142.05;29.15;;;3.10;99.90;;;2.00;100.00;97669.81;5043951;28;20096;-72
2022/12/05 08:23:56;;;;;;;155.45;31.75;;;3.10;99.90;;;2.14;100.00;97668.88;5046690;28;20045;-73
2022/12/05 08:26:26;;;;;;;126.53;25.52;;;3.20;99.90;;;2.03;100.00;97669.81;5045548;28;20049;-73
2022/12/05 08:28:59;;;;;;;64.18;20.67;;;3.10;99.90;;;2.16;100.00;97668.00;5044340;28;20060;-73
2022/12/05 08:31:29;;;;;;;94.97;23.60;;;3.20;99.90;;;2.17;100.00;97672.28;5043552;28;20722;-72
2022/12/05 08:33:58;;;;;;;114.10;27.58;;;3.20;99.90;;;2.18;100.00;97668.00;5043936;28;20084;-72
2022/12/05 08:36:28;;;;;;;84.53;23.63;;;3.20;99.90;;;2.13;100.00;97683.38;5041188;28;20064;-72
2022/12/05 08:39:00;;;;;;;137.05;26.65;;;3.20;99.90;;;2.16;100.00;97678.22;5047026;28;20060;-73
2022/12/05 08:41:28;;;;;;;128.48;27.50;;;3.30;99.90;;;2.18;100.00;97681.63;5045002;28;20048;-73
2022/12/05 08:44:01;;;;;;;86.32;22.70;;;3.20;99.90;;;2.19;100.00;97683.34;5045588;28;20057;-72
2022/12/05 08:46:30;;;;;;;135.18;28.08;;;3.20;99.90;;;2.33;100.00;97687.50;5045058;28;20356;-73
2022/12/05 08:48:58;;;;;;;73.82;22.70;;;3.20;99.90;;;2.33;100.00;97698.59;5043046;28;20057;-73
2022/12/05 08:51:25;;;;;;;98.40;25.02;;;3.20;99.90;;;2.36;100.00;97690.88;5045992;28;20061;-73
2022/12/05 08:53:52;;;;;;;72.50;22.48;;;3.30;99.90;;;2.34;100.00;97695.19;5042487;28;20044;-72
2022/12/05 08:56:19;;;;;;;66.72;23.20;;;3.20;99.90;;;2.36;100.00;97706.25;5041839;28;20037;-73
2022/12/05 08:58:53;;;;;;;112.07;26.63;;;3.30;99.90;;;2.33;100.00;97693.50;5040293;28;20055;-72
2022/12/05 09:01:32;;;;;;;78.57;23.05;;;3.30;99.90;;;2.38;100.00;97706.25;5045740;28;20053;-72
2022/12/05 09:04:01;;;;;;;85.95;26.90;;;3.30;99.90;;;2.48;100.00;97707.88;5045524;28;20052;-73
2022/12/05 09:06:28;;;;;;;83.40;24.73;;;3.30;99.90;;;2.32;100.00;97702.00;5043509;28;20564;-72
2022/12/05 09:09:03;;;;;;;97.80;28.98;;;3.40;99.90;;;2.24;100.00;97706.38;5039169;28;20450;-73
2022/12/05 09:11:34;;;;;;;77.22;23.80;;;3.40;99.90;;;2.39;100.00;97713.06;5043145;28;20048;-73
2022/12/05 09:14:03;;;;;;;74.25;25.33;;;3.50;99.90;;;2.48;100.00;97716.41;5041870;28;20049;-73
2022/12/05 09:16:33;;;;;;;63.65;22.80;;;3.40;99.90;;;2.44;100.00;97725.00;5053954;28;20128;-73
2022/12/05 09:19:19;;;;;;;63.03;22.33;;;3.40;99.90;;;2.45;100.00;97726.69;5044544;28;20217;-72
2022/12/05 09:21:46;;;;;;;43.17;17.70;;;3.40;99.90;;;2.49;100.00;97730.94;5043323;28;20053;-73
2022/12/05 09:24:14;;;;;;;72.53;22.33;;;3.40;99.90;;;2.49;100.00;97738.63;5042414;28;20085;-73
2022/12/05 09:26:41;;;;;;;45.08;17.08;;;3.50;99.90;;;2.46;100.00;97755.72;5039957;28;20089;-72
2022/12/05 09:29:10;;;;;;;63.38;20.92;;;3.50;99.90;;;3.65;100.00;97735.75;5040022;28;20064;-72
2022/12/05 09:31:45;;;;;;;48.63;19.25;;;3.50;99.90;;;3.05;100.00;97761.19;5041330;28;20107;-72
2022/12/05 09:34:13;;;;;;;43.58;17.75;;;3.60;99.90;;;2.94;100.00;97766.41;5043120;28;20056;-73
2022/12/05 09:36:41;;;;;;;59.33;21.15;;;3.60;99.90;;;3.02;100.00;97763.78;5044501;28;20045;-72
2022/12/05 09:39:09;;;;;;;49.80;19.25;;;3.60;99.90;;;3.01;100.00;97762.94;5041309;28;20078;-73
2022/12/05 09:42:04;;;;;;;33.35;13.65;;;3.60;99.90;;;3.05;100.00;97769.72;5053885;28;20053;-73
2022/12/05 09:45:19;;;;;;;44.90;17.50;;;3.50;99.90;;;3.00;100.00;97758.66;5038041;28;20053;-73
2022/12/05 09:47:59;;;;;;;44.53;17.02;;;3.60;99.90;;;2.81;100.00;97769.97;5043981;28;20049;-73
2022/12/05 09:50:33;;;;;;;32.45;15.07;;;3.60;99.90;;;2.88;100.00;97769.06;5044889;28;20088;-72
2022/12/05 09:53:18;;;;;;;41.42;18.33;;;3.50;99.90;;;2.99;100.00;97774.06;5040271;28;20429;-72
2022/12/05 09:55:55;;;;;;;44.08;17.23;;;3.60;99.90;;;2.96;100.00;97772.38;5042799;28;20053;-72
2022/12/05 09:58:51;;;;;;;63.08;21.63;;;3.50;99.90;;;3.07;100.00;97765.44;5053752;28;20045;-72
2022/12/05 10:01:21;;;;;;;38.50;16.88;;;3.60;99.90;;;3.05;100.00;97762.03;5039740;28;20056;-73
2022/12/05 10:04:25;;;;;;;45.33;18.20;;;3.50;99.90;;;3.08;100.00;97759.47;5055613;28;20061;-73
2022/12/05 10:07:11;;;;;;;;;;;3.50;99.90;;;2.93;100.00;97765.56;5045866;28;20057;-73
2022/12/05 10:10:16;;;;;;;40.15;16.45;;;3.50;99.90;;;2.95;100.00;97767.28;5045318;28;20341;-72
2022/12/05 10:13:13;;;;;;;44.30;17.95;;;3.50;99.90;;;2.92;100.00;97763.03;5024028;28;20049;-72
2022/12/05 10:15:47;;;;;;;39.45;17.35;;;3.60;99.90;;;2.90;100.00;97769.91;5044850;28;20045;-72
2022/12/05 10:18:39;;;;;;;43.17;17.48;;;3.60;99.90;;;2.93;100.00;97757.88;5042607;28;20407;-72
2022/12/05 10:21:47;;;;;;;35.42;16.70;;;3.60;99.90;;;2.94;100.00;97758.72;5042198;28;20124;-72
2022/12/05 10:24:32;;;;;;;39.60;16.95;;;3.60;99.90;;;3.00;100.00;97761.22;5046968;28;20088;-72
2022/12/05 10:27:14;;;;;;;41.75;17.92;;;3.60;99.90;;;3.08;100.00;97751.75;5042708;28;20052;-72
2022/12/05 10:30:10;;;;;;;39.60;18.10;;;3.60;99.90;;;3.18;100.00;97744.81;5041546;28;20060;-72
2022/12/05 10:32:37;;;;;;;39.10;17.95;;;3.60;99.90;;;3.10;100.00;97755.16;5046259;28;20093;-72
2022/12/05 10:35:24;;;;;;;34.38;16.17;;;3.60;99.90;;;3.20;100.00;97760.19;5046133;28;20053;-72
2022/12/05 10:37:57;;;;;;;31.73;15.05;;;3.60;99.90;;;3.15;100.00;97750.00;5046241;28;20138;-72
2022/12/05 10:40:35;;;;;;;33.35;16.35;;;3.60;99.90;;;3.18;100.00;97744.81;5045567;28;20052;-72
2022/12/05 10:43:05;;;;;;;28.13;14.50;;;3.60;99.90;;;3.22;100.00;97746.50;5038817;28;20064;-72
2022/12/05 10:45:36;;;;;;;27.77;14.20;;;3.70;99.90;;;3.16;100.00;97750.84;5043420;28;20087;-72
2022/12/05 10:48:03;;;;;;;29.42;14.18;;;3.70;99.90;;;3.33;100.00;97743.78;5042880;28;20510;-72